Les articles d'ExpertMaritime.pro


Votre expert maritime indépendant Xavier Braive est disponible sur la zone de Meschers-sur-Gironde - Port de Meschers - 17132

(Charente-Maritime - Poitou-Charentes)


Voir plan
Situation :

Le Port de Meschers, situé sur la rive droite de la Gironde près de son embouchure, est abrité par tous temps.

Il comprend :

- Un avant-chenal de 250 m de long, large de 8 m qui fait un angle de 8° W avec le Nord vrai, creusé à la cote + 0,50 m ; le vieux havre d’échouage ou « chenal » équipé de quai, cales en 1861.

- Un bassin d’échouage créé 1985 de 121 places sur pontons flottants, creuse à la cote + 1 m.

- Un bassin à flot mis en service en 1990, de 121 places à l’origine, 116 aujourd’hui (on y a placé des bateaux plus grands que prévu), en arrière d’une porte-écluse, T.E. 2,50 m ; le seuil de l’écluse est à la cote + 2 m ; les portes ouvrent quand la mer atteint le niveau + 3,50 m, avec 1,50 m d’eau sur le seuil (les cotes se réfèrent au niveau 0 des cartes marines).
Lat. 45° 33?, 3 N – Long. 00° 56?, 6 W ; carte SHOM 7029.
Distances : LE VERDON : 3,5 M. – ROYAN : 5 M. – PAUILLAC : 23 M. – BORDEAUX : 48 M.

- Une zone de mouillage, ouverte d’Avril à Septembre, de 22 corps morts, sur les vases à l’est du chenal d’accès.

Pratique :

Ville de Meschers : Location des anneaux.
Capitainerie, Tél.: 05.46.02.56.89 – VHF canal 9 –
n° de Fax 05 46 02 34 77 - GSM 06 15 11 23 10
Monsieur KERDUDOU est le capitaine assermenté du port.

SAUVETAGE :
CROSS ETEL, Tél.: O2 .97.553.535.
De juin à septembre Poste de Secours – Plage des Nonnes,
Tél. : 05.46.02.72.92, situé à 1 mille au nord du Port.
Météo affichée à la Capitainerie.
Météo locale sur la zone Port de Meschers
Heure (UTC) Dir.Vent Vit.Vent (nds) Force (Bft) T°min T°max P (mb) Hum.Rel.
07/08/2022 - 21:00:00 au 08/08/2022 - 00:00:00 046° (NE) 12 4 21°C 22°C 1018 34 %
08/08/2022 - 00:00:00 au 08/08/2022 - 03:00:00 045° (NE) 11 4 19°C 21°C 1018 36 %
08/08/2022 - 03:00:00 au 08/08/2022 - 06:00:00 042° (NE) 12 4 18°C 20°C 1019 40 %
08/08/2022 - 06:00:00 au 08/08/2022 - 09:00:00 052° (NE) 12 4 27°C 27°C 1019 31 %
08/08/2022 - 09:00:00 au 08/08/2022 - 12:00:00 050° (NE) 12 4 31°C 31°C 1017 22 %
08/08/2022 - 12:00:00 au 08/08/2022 - 15:00:00 046° (NE) 12 4 33°C 33°C 1016 21 %
08/08/2022 - 15:00:00 au 08/08/2022 - 18:00:00 048° (NE) 12 4 32°C 32°C 1016 20 %
08/08/2022 - 18:00:00 au 08/08/2022 - 21:00:00 034° (NE) 11 4 25°C 25°C 1018 32 %
08/08/2022 - 21:00:00 au 09/08/2022 - 00:00:00 044° (NE) 11 4 23°C 23°C 1018 35 %
09/08/2022 - 00:00:00 au 09/08/2022 - 03:00:00 046° (NE) 11 4 22°C 22°C 1018 40 %
09/08/2022 - 03:00:00 au 09/08/2022 - 06:00:00 052° (NE) 12 4 20°C 20°C 1020 43 %
09/08/2022 - 06:00:00 au 09/08/2022 - 09:00:00 056° (NE) 12 4 28°C 28°C 1020 29 %
09/08/2022 - 09:00:00 au 09/08/2022 - 12:00:00 054° (NE) 13 4 33°C 33°C 1018 21 %
09/08/2022 - 12:00:00 au 09/08/2022 - 15:00:00 052° (NE) 11 4 34°C 34°C 1017 19 %
09/08/2022 - 15:00:00 au 09/08/2022 - 18:00:00 047° (NE) 10 3 33°C 33°C 1016 20 %
09/08/2022 - 18:00:00 au 09/08/2022 - 21:00:00 039° (NE) 11 4 27°C 27°C 1017 29 %
09/08/2022 - 21:00:00 au 10/08/2022 - 00:00:00 052° (NE) 12 4 25°C 25°C 1017 34 %
10/08/2022 - 00:00:00 au 10/08/2022 - 03:00:00 048° (NE) 9 3 21°C 21°C 1017 44 %
10/08/2022 - 03:00:00 au 10/08/2022 - 06:00:00 055° (NE) 9 3 20°C 20°C 1017 46 %
10/08/2022 - 06:00:00 au 10/08/2022 - 09:00:00 068° (ENE) 10 3 30°C 30°C 1017 26 %
10/08/2022 - 09:00:00 au 10/08/2022 - 12:00:00 061° (ENE) 11 4 34°C 34°C 1015 19 %
10/08/2022 - 12:00:00 au 10/08/2022 - 15:00:00 042° (NE) 8 3 35°C 35°C 1014 18 %
10/08/2022 - 15:00:00 au 10/08/2022 - 18:00:00 039° (NE) 10 3 34°C 34°C 1012 19 %
10/08/2022 - 18:00:00 au 10/08/2022 - 21:00:00 046° (NE) 8 3 26°C 26°C 1014 29 %
10/08/2022 - 21:00:00 au 11/08/2022 - 00:00:00 053° (NE) 10 3 24°C 24°C 1013 34 %
11/08/2022 - 00:00:00 au 11/08/2022 - 03:00:00 075° (ENE) 7 3 21°C 21°C 1013 40 %
11/08/2022 - 03:00:00 au 11/08/2022 - 06:00:00 063° (ENE) 7 3 21°C 21°C 1013 39 %
11/08/2022 - 06:00:00 au 11/08/2022 - 09:00:00 093° (E) 7 3 29°C 29°C 1013 31 %
11/08/2022 - 09:00:00 au 11/08/2022 - 12:00:00 305° (NW) 2 1 33°C 33°C 1012 26 %
11/08/2022 - 12:00:00 au 11/08/2022 - 15:00:00 296° (WNW) 10 3 33°C 33°C 1011 26 %
11/08/2022 - 15:00:00 au 11/08/2022 - 18:00:00 314° (NW) 8 3 30°C 30°C 1010 32 %
11/08/2022 - 18:00:00 au 11/08/2022 - 21:00:00 328° (NNW) 5 2 24°C 24°C 1011 56 %
11/08/2022 - 21:00:00 au 12/08/2022 - 00:00:00 218° (SW) 5 2 21°C 21°C 1012 72 %
12/08/2022 - 00:00:00 au 12/08/2022 - 03:00:00 164° (SSE) 4 2 20°C 20°C 1012 74 %
12/08/2022 - 03:00:00 au 12/08/2022 - 06:00:00 175° (S) 7 3 21°C 21°C 1013 78 %
12/08/2022 - 06:00:00 au 12/08/2022 - 09:00:00 215° (SW) 7 3 27°C 27°C 1013 60 %
12/08/2022 - 09:00:00 au 12/08/2022 - 12:00:00 258° (WSW) 9 3 29°C 29°C 1013 53 %
12/08/2022 - 12:00:00 au 12/08/2022 - 15:00:00 276° (W) 10 3 28°C 28°C 1012 58 %
12/08/2022 - 15:00:00 au 12/08/2022 - 18:00:00 304° (NW) 9 3 25°C 25°C 1012 70 %
12/08/2022 - 18:00:00 au 12/08/2022 - 21:00:00 333° (NNW) 6 2 21°C 21°C 1012 87 %
openweathermap
Ces informations sont partiellement extraites de Wikipedia, et des sites pertinents pour cette zone. Compilation d'informations de Xavier Braive.
Xavier Braive, Expert Maritime Plaisance se déplace sur Port de Meschers, Meschers-sur-Gironde, 17132, Charente-Maritime

Welcome to Cross-Channel yachtmen !

we can deliver survey reports in english, in case of dammage or prior to buy / sell a boat in France (pre-purchase survey), and more specifically on the Atlantic coast.

Uw onafhankelijk jachtexpert

verkrijkbaar op de Atlantische kust, bij aankoop of reparatie van jachten (metaal, polyester of composiet). Rapporten in Nederlands

BRAIVE, Xavier
Xavier Braive
Expert Maritime
Nouvelle Aquitaine
France
07 64 82 25 44